Latest Weather Observations for Ceduna

IDS60801

Issued at 11:01 pm CST Monday 26 June 2017 (issued every 30 minutes, with the page automatically refreshed every 10 minutes)

About weather observations | Map of weather stations | Latest weather observations for SA | Other Formats
Station Details ID: 018012 Name: CEDUNA AMO Lat: -32.13 Lon: 133.70 Height: 15.3 m
Data from the previous 72 hours. | See also: Recent months at Ceduna
Date/Time
CST
Temp
°C
App
Temp
°C
Dew
Point
°C
Rel
Hum
%
Delta-T
°C
Wind Press
QNH
hPa
Press
MSL
hPa
Rain since
9am
mm
Dir  Spd
km/h
Gust
km/h
Spd
kts
Gust
kts
26/11:00pm 9.8 7.3 8.4 91 0.7 ENE 11 13 6 7 1024.4 1024.4 0.0
26/10:30pm 9.6 7.5 8.2 91 0.7 ENE 9 11 5 6 1024.4 1024.4 0.0
26/10:00pm 10.1 8.0 8.4 89 0.8 ENE 9 11 5 6 1024.5 1024.5 0.0
26/09:30pm 10.4 8.4 8.8 90 0.8 ENE 9 9 5 5 1024.8 1024.8 0.0
26/09:00pm 10.4 8.5 9.0 91 0.7 ESE 9 11 5 6 1024.7 1024.7 0.0
26/08:30pm 10.4 9.0 9.0 91 0.7 ESE 6 7 3 4 1024.8 1024.8 0.0
26/08:00pm 11.1 9.7 9.0 87 1.0 SSE 6 7 3 4 1024.7 1024.7 0.0
26/07:30pm 11.2 10.9 8.6 84 1.3 CALM 0 0 0 0 1024.7 1024.7 0.0
26/07:00pm 11.9 10.4 8.6 80 1.6 SSE 6 6 3 3 1024.6 1024.6 0.0
26/06:30pm 11.6 11.3 8.5 81 1.5 CALM 0 4 0 2 1024.4 1024.4 0.0
26/06:00pm 12.3 10.6 8.2 76 2.0 S 7 7 4 4 1023.9 1023.9 0.0
26/05:30pm 13.1 11.4 8.4 73 2.3 SSE 7 9 4 5 1023.9 1023.9 0.0
26/05:00pm 14.0 12.2 7.8 66 3.1 S 7 9 4 5 1023.8 1023.8 0.0
26/04:30pm 14.4 12.0 7.2 62 3.5 S 9 11 5 6 1024.1 1024.1 0.0
26/04:00pm 14.5 11.4 7.1 61 3.6 SSW 13 15 7 8 1023.9 1023.9 0.0
26/03:30pm 14.8 11.4 7.8 63 3.5 SSW 15 17 8 9 1023.8 1023.8 0.0
26/03:00pm 14.9 11.5 7.5 61 3.6 SW 15 17 8 9 1024.0 1024.0 0.0
26/02:30pm 15.1 12.1 7.6 61 3.7 SW 13 15 7 8 1023.9 1023.9 0.0
26/02:00pm 15.2 13.0 7.7 61 3.7 SW 9 15 5 8 1024.2 1024.2 0.0
26/01:30pm 16.2 13.7 6.6 53 4.7 NE 9 13 5 7 1024.4 1024.4 0.0
26/01:00pm 16.1 13.0 7.1 55 4.5 NE 13 19 7 10 1024.8 1024.8 0.0
26/12:30pm 16.6 14.2 7.0 53 4.7 NE 9 19 5 10 1025.1 1025.1 0.0
26/12:00pm 15.9 13.5 7.1 56 4.3 E 9 13 5 7 1025.4 1025.4 0.0
26/11:30am 14.6 14.3 10.0 74 2.4 NNE 2 7 1 4 1026.0 1026.0 0.0
26/11:00am 13.5 12.7 11.0 85 1.3 N 6 9 3 5 1026.8 1026.8 0.0
26/10:30am 11.2 9.9 10.0 92 0.6 NNW 7 11 4 6 1026.9 1026.9 0.0
26/10:00am 10.5 9.1 9.6 94 0.5 N 7 9 4 5 1026.6 1026.6 0.0
26/09:30am 9.1 7.6 8.5 96 0.3 NNE 6 7 3 4 1026.0 1026.0 0.0
26/09:00am 7.7 6.0 7.6 99 0.0 NNE 6 7 3 4 1025.7 1025.7 1.4
26/08:30am 7.2 4.1 7.1 99 0.0 NE 13 15 7 8 1025.2 1025.2 1.4
26/08:00am 6.6 3.0 6.6 100 0.0 NE 15 17 8 9 1024.7 1024.7 1.4
26/07:30am 5.9 2.5 5.9 100 0.0 NE 13 15 7 8 1024.5 1024.5 1.4
26/07:00am 4.9 1.3 4.8 99 0.0 E 13 15 7 8 1024.4 1024.4 1.4
26/06:55am 4.0 0.5 3.7 98 0.1 E 11 13 6 7 1024.4 1024.4 1.4
26/06:36am 4.9 2.4 4.6 98 0.1 NNE 7 9 4 5 1024.6 1024.6 1.4
26/06:30am 5.5 3.3 5.4 99 0.0 NNE 6 7 3 4 1024.7 1024.7 1.4
26/06:00am 6.1 3.9 6.0 99 0.0 NNE 7 11 4 6 1024.5 1024.5 1.4
26/05:30am 6.2 3.6 6.1 99 0.0 N 9 11 5 6 1024.5 1024.5 1.4
26/05:00am 5.9 3.6 5.8 99 0.0 NE 7 11 4 6 1024.3 1024.3 1.4
26/04:30am 6.4 3.8 6.3 99 0.0 N 9 13 5 7 1024.3 1024.3 1.4
26/04:00am 6.0 3.8 6.0 100 0.0 SE 7 9 4 5 1024.0 1024.0 1.4
26/03:30am 5.5 4.4 5.2 98 0.1 CALM 0 0 0 0 1024.0 1024.0 1.4
26/03:00am 7.5 5.6 7.5 100 0.0 ESE 7 11 4 6 1024.1 1024.1 1.4
26/02:47am 6.4 4.8 6.4 100 0.0 SE 4 11 2 6 1024.1 1024.1 1.4
26/02:31am 4.8 3.6 4.5 98 0.1 CALM 0 19 0 10 1024.3 1024.3 1.4
26/02:30am 4.8 3.6 4.5 98 0.1 CALM 0 0 0 0 1024.3 1024.3 1.4
26/02:29am 4.9 3.7 4.6 98 0.1 CALM 0 0 0 0 1024.3 1024.3 1.4
26/02:12am 5.7 4.7 5.6 99 0.0 CALM 0 0 0 0 1024.1 1024.1 1.4
26/02:00am 5.1 3.9 4.8 98 0.1 CALM 0 0 0 0 1024.0 1024.0 1.4
26/01:30am 6.7 4.2 6.6 99 0.0 NNW 9 11 5 6 1024.2 1024.2 1.4
26/01:00am 7.4 5.4 7.3 99 0.0 NNW 7 9 4 5 1024.5 1024.5 1.4
26/12:30am 7.6 5.7 7.5 99 0.0 NNW 7 9 4 5 1024.4 1024.4 1.4
26/12:00am 8.3 6.6 8.3 100 0.0 NNW 7 9 4 5 1024.7 1024.7 1.4
 
Date/Time
CST
Temp
°C
App
Temp
°C
Dew
Point
°C
Rel
Hum
%
Delta-T
°C
Wind Press
QNH
hPa
Press
MSL
hPa
Rain since
9am
mm
Dir  Spd
km/h
Gust
km/h
Spd
kts
Gust
kts
25/11:30pm 7.9 6.1 7.8 99 0.0 NNE 7 9 4 5 1024.7 1024.7 1.4
25/11:00pm 7.4 5.4 7.1 98 0.1 NNE 7 9 4 5 1024.5 1024.5 1.4
25/10:30pm 8.1 6.3 8.0 99 0.0 E 7 9 4 5 1024.5 1024.5 1.4
25/10:00pm 8.1 5.6 8.0 99 0.0 ESE 11 13 6 7 1024.4 1024.4 1.4
25/09:30pm 8.4 6.2 8.0 97 0.2 E 9 11 5 6 1024.4 1024.4 1.4
25/09:00pm 9.0 7.0 8.6 97 0.2 ESE 9 9 5 5 1024.0 1024.0 1.4
25/08:30pm 9.7 7.8 8.9 95 0.4 SE 9 11 5 6 1023.8 1023.8 1.4
25/08:00pm 10.5 8.4 9.9 96 0.3 SE 11 13 6 7 1023.6 1023.6 1.4
25/07:30pm 11.2 8.9 10.3 94 0.5 SSE 13 15 7 8 1023.3 1023.3 1.4
25/07:00pm 11.8 9.4 10.2 90 0.8 S 13 17 7 9 1023.0 1023.0 1.4
25/06:30pm 12.0 9.5 10.9 93 0.6 S 15 17 8 9 1022.9 1022.9 1.4
25/06:00pm 11.3 9.5 9.4 88 0.9 SSE 9 11 5 6 1022.8 1022.8 1.4
25/05:30pm 13.2 11.6 10.2 82 1.5 S 9 11 5 6 1022.6 1022.6 1.4
25/05:00pm 14.1 12.1 10.3 78 2.0 S 11 17 6 9 1022.6 1022.6 1.4
25/04:30pm 15.0 12.9 11.0 77 2.1 S 13 17 7 9 1022.5 1022.5 1.4
25/04:00pm 15.2 13.2 11.4 78 2.0 S 13 19 7 10 1022.5 1022.5 1.4
25/03:30pm 15.1 12.0 11.7 80 1.8 S 19 24 10 13 1022.4 1022.4 1.4
25/03:00pm 15.8 12.5 11.0 73 2.6 S 19 24 10 13 1022.2 1022.2 1.2
25/02:30pm 15.5 12.2 11.5 77 2.1 SSW 20 28 11 15 1022.2 1022.2 1.2
25/02:00pm 15.6 12.9 11.8 78 2.1 SW 17 20 9 11 1022.5 1022.5 1.2
25/01:30pm 16.7 13.9 12.5 76 2.3 SW 19 24 10 13 1022.2 1022.2 1.2
25/01:00pm 16.5 14.3 12.1 75 2.4 SW 15 19 8 10 1022.5 1022.5 1.2
25/12:30pm 16.2 14.8 10.9 71 2.8 WSW 9 15 5 8 1022.9 1022.9 1.2
25/12:00pm 15.9 15.0 12.5 80 1.9 WNW 9 13 5 7 1023.4 1023.4 1.2
25/11:30am 14.2 13.1 13.1 93 0.6 N 11 13 6 7 1023.7 1023.7 1.2
25/11:00am 12.7 11.3 12.2 97 0.3 N 11 15 6 8 1024.0 1024.0 1.2
25/10:30am 13.1 12.6 12.6 97 0.3 N 7 11 4 6 1023.9 1023.9 1.0
25/10:00am 11.0 9.5 10.7 98 0.2 NNW 9 13 5 7 1024.0 1024.0 1.0
25/09:46am 10.6 9.4 10.3 98 0.2 NW 7 11 4 6 1023.7 1023.7 1.0
25/09:34am 10.4 8.0 10.2 99 0.1 NW 13 15 7 8 1023.6 1023.6 1.0
25/09:31am 10.1 7.7 10.0 99 0.1 NNW 13 17 7 9 1023.5 1023.5 1.0
25/09:30am 10.1 7.7 10.0 99 0.1 NNW 13 17 7 9 1023.5 1023.5 1.0
25/09:15am 10.1 8.1 10.0 99 0.1 W 11 22 6 12 1023.5 1023.5 0.8
25/09:00am 10.1 8.1 10.1 100 0.0 N 11 13 6 7 1023.1 1023.1 2.2
25/08:47am 9.6 7.8 9.6 100 0.0 N 9 15 5 8 1022.8 1022.8 2.2
25/08:30am 9.2 7.7 9.2 100 0.0 N 7 9 4 5 1022.7 1022.7 2.2
25/08:00am 8.6 7.5 8.6 100 0.0 N 4 7 2 4 1022.3 1022.3 2.2
25/07:30am 8.4 6.7 8.4 100 0.0 N 7 9 4 5 1022.0 1022.0 2.2
25/07:00am 8.6 6.6 8.5 99 0.0 N 9 11 5 6 1021.6 1021.6 2.0
25/06:57am 8.6 6.6 8.5 99 0.0 N 9 13 5 7 1021.5 1021.5 2.0
25/06:30am 8.9 6.9 8.8 99 0.0 NNE 9 11 5 6 1021.5 1021.5 2.0
25/06:00am 9.2 6.9 9.1 99 0.0 NNE 11 13 6 7 1021.3 1021.3 2.0
25/05:53am 9.2 7.3 9.1 99 0.0 N 9 11 5 6 1021.3 1021.3 2.0
25/05:51am 9.2 7.3 9.1 99 0.0 NNE 9 11 5 6 1021.3 1021.3 2.0
25/05:30am 9.7 8.0 9.7 100 0.0 NW 9 13 5 7 1021.3 1021.3 1.8
25/05:15am 9.7 7.9 9.6 99 0.0 NNW 9 11 5 6 1021.3 1021.3 1.8
25/05:00am 9.9 8.6 9.8 99 0.1 N 7 11 4 6 1021.1 1021.1 1.8
25/04:30am 9.6 8.2 9.5 99 0.0 N 7 11 4 6 1020.9 1020.9 1.8
25/04:14am 9.8 8.0 9.5 98 0.1 N 9 13 5 7 1021.0 1021.0 1.8
25/04:00am 11.4 10.6 11.2 99 0.1 W 6 13 3 7 1020.9 1020.9 1.8
25/03:44am 11.7 10.5 11.5 99 0.1 W 9 13 5 7 1020.9 1020.9 1.8
25/03:30am 11.2 10.8 11.0 99 0.1 NNW 4 9 2 5 1020.8 1020.8 1.8
25/03:13am 11.3 10.5 11.1 99 0.1 ESE 6 7 3 4 1020.8 1020.8 1.8
25/03:09am 11.4 10.5 11.2 99 0.1 ESE 7 9 4 5 1020.8 1020.8 1.8
25/03:00am 11.5 9.8 11.3 99 0.1 ESE 11 13 6 7 1020.9 1020.9 1.8
25/02:47am 11.3 10.0 11.1 99 0.1 ESE 9 11 5 6 1020.9 1020.9 1.8
25/02:30am 11.5 9.8 11.3 99 0.1 E 11 13 6 7 1021.0 1021.0 1.8
25/02:22am 11.6 10.3 11.4 99 0.1 ESE 9 11 5 6 1021.0 1021.0 1.6
25/02:00am 11.1 10.3 10.9 99 0.1 SSE 6 9 3 5 1020.8 1020.8 1.6
25/01:30am 10.4 9.4 10.2 99 0.1 SSW 6 9 3 5 1020.9 1020.9 1.0
25/01:29am 10.4 9.4 10.2 99 0.1 SSW 6 7 3 4 1020.9 1020.9 1.0
25/01:28am 10.4 9.4 10.2 99 0.1 SSW 6 7 3 4 1020.9 1020.9 0.8
25/01:27am 10.5 9.5 10.3 99 0.1 SW 6 7 3 4 1020.9 1020.9 0.8
25/01:08am 10.0 8.6 9.7 98 0.2 S 7 9 4 5 1020.9 1020.9 0.4
25/01:00am 9.7 8.3 9.4 98 0.1 W 7 9 4 5 1020.9 1020.9 0.0
25/12:52am 9.5 8.0 9.2 98 0.1 NNW 7 9 4 5 1020.8 1020.8 0.0
25/12:30am 9.0 7.4 8.7 98 0.1 N 7 9 4 5 1021.0 1021.0 0.0
25/12:00am 9.2 7.8 8.9 98 0.1 N 6 7 3 4 1021.1 1021.1 0.0
 
Date/Time
CST
Temp
°C
App
Temp
°C
Dew
Point
°C
Rel
Hum
%
Delta-T
°C
Wind Press
QNH
hPa
Press
MSL
hPa
Rain since
9am
mm
Dir  Spd
km/h
Gust
km/h
Spd
kts
Gust
kts
24/11:30pm 8.7 7.6 8.3 97 0.2 N 4 7 2 4 1021.2 1021.2 0.0
24/11:00pm 9.5 8.1 9.4 99 0.0 N 7 9 4 5 1021.2 1021.2 0.0
24/10:30pm 8.9 6.9 8.6 98 0.1 N 9 9 5 5 1021.1 1021.1 0.0
24/10:00pm 8.7 7.0 8.4 98 0.1 NNW 7 9 4 5 1021.0 1021.0 0.0
24/09:30pm 9.1 7.2 9.0 99 0.0 NNE 9 13 5 7 1020.8 1020.8 0.0
24/09:00pm 8.6 8.1 7.8 95 0.4 CALM 0 0 0 0 1020.7 1020.7 0.0
24/08:30pm 8.9 7.8 8.3 96 0.3 SSW 4 9 2 5 1020.6 1020.6 0.0
24/08:14pm 8.9 8.5 8.1 95 0.4 CALM 0 0 0 0 1020.6 1020.6 0.0
24/08:00pm 9.1 8.4 8.6 97 0.2 SSW 2 6 1 3 1020.5 1020.5 0.0
24/07:53pm 9.9 8.7 9.6 98 0.1 SSW 6 7 3 4 1020.4 1020.4 0.0
24/07:30pm 9.4 7.7 8.2 92 0.6 SSW 7 7 4 4 1020.1 1020.1 0.0
24/07:00pm 10.4 8.4 8.8 90 0.8 SSW 9 9 5 5 1019.7 1019.7 0.0
24/06:30pm 12.5 11.5 10.9 90 0.8 SSW 7 9 4 5 1019.6 1019.6 0.0
24/06:00pm 13.5 12.7 11.6 88 1.0 S 7 9 4 5 1019.6 1019.6 0.0
24/05:30pm 14.7 13.4 12.6 87 1.1 S 11 15 6 8 1019.5 1019.5 0.0
24/05:00pm 15.9 13.8 12.3 79 2.0 S 15 19 8 10 1019.4 1019.4 0.0
24/04:30pm 16.7 14.1 12.0 74 2.6 SSW 17 20 9 11 1019.3 1019.3 0.0
24/04:00pm 17.0 14.1 12.3 74 2.6 SSW 19 22 10 12 1019.3 1019.3 0.0
24/03:30pm 17.4 14.8 13.1 76 2.4 SSW 19 24 10 13 1019.0 1019.0 0.0
24/03:00pm 17.7 15.5 13.4 76 2.4 SW 17 22 9 12 1018.9 1018.9 0.0
24/02:30pm 17.5 15.1 12.8 74 2.6 SW 17 20 9 11 1018.9 1018.9 0.0
24/02:00pm 17.4 15.5 13.1 76 2.4 WSW 15 20 8 11 1019.0 1019.0 0.0
24/01:30pm 17.6 15.9 13.7 78 2.2 SW 15 19 8 10 1019.3 1019.3 0.0
24/01:00pm 17.5 15.4 13.6 78 2.2 SW 17 20 9 11 1019.4 1019.4 0.0
24/12:30pm 16.7 15.3 13.4 81 1.8 SW 13 19 7 10 1020.0 1020.0 0.0
24/12:02pm 17.1 16.4 14.2 83 1.7 WSW 11 15 6 8 1020.2 1020.2 0.0
24/12:00pm 16.8 16.0 13.9 83 1.6 WSW 11 15 6 8 1020.2 1020.2 0.0
24/11:39am 16.8 16.0 13.9 83 1.6 W 11 15 6 8 1020.4 1020.4 0.0
24/11:30am 17.1 16.4 14.2 83 1.7 W 11 15 6 8 1020.5 1020.5 0.0
24/11:00am 16.0 14.7 13.8 87 1.2 W 13 17 7 9 1020.6 1020.6 0.0
24/10:58am 15.9 15.1 13.9 88 1.1 W 11 17 6 9 1020.6 1020.6 0.0
24/10:33am 14.3 13.1 12.9 91 0.8 W 11 13 6 7 1020.8 1020.8 0.0
24/10:30am 14.4 13.3 13.0 91 0.8 W 11 15 6 8 1020.8 1020.8 0.0
24/10:00am 13.9 12.8 13.0 94 0.5 WNW 11 17 6 9 1020.7 1020.7 0.0
24/09:30am 12.0 10.1 11.7 98 0.2 NNW 13 15 7 8 1020.3 1020.3 0.0
24/09:00am 10.6 9.1 10.6 100 0.0 NNW 9 13 5 7 1020.1 1020.1 0.8
24/08:58am 10.5 8.6 10.5 100 0.0 NNW 11 13 6 7 1020.1 1020.1 0.8
24/08:42am 9.3 7.1 9.3 100 0.0 N 11 11 6 6 1020.1 1020.1 0.8
24/08:30am 8.9 6.6 8.9 100 0.0 N 11 13 6 7 1020.1 1020.1 0.8
24/08:00am 8.2 6.5 8.2 100 0.0 N 7 9 4 5 1019.7 1019.7 0.8
24/07:33am 8.7 6.3 8.7 100 0.0 NNW 11 13 6 7 1019.4 1019.4 0.8
24/07:30am 8.6 6.2 8.6 100 0.0 NNW 11 13 6 7 1019.3 1019.3 0.8
24/07:00am 8.8 6.8 8.8 100 0.0 N 9 9 5 5 1019.2 1019.2 0.8
24/06:30am 8.5 6.8 8.5 100 0.0 NNW 7 9 4 5 1018.7 1018.7 0.8
24/06:29am 8.5 6.8 8.5 100 0.0 NNW 7 9 4 5 1018.7 1018.7 0.8
24/06:00am 9.8 8.5 9.8 100 0.0 N 7 9 4 5 1018.5 1018.5 0.8
24/05:30am 10.2 8.2 10.2 100 0.0 NW 11 15 6 8 1018.4 1018.4 0.8
24/05:00am 10.4 8.9 10.4 100 0.0 NNW 9 11 5 6 1018.3 1018.3 0.6
24/04:30am 11.5 9.9 11.5 100 0.0 NW 11 15 6 8 1018.3 1018.3 0.6
24/04:00am 11.9 10.4 11.9 100 0.0 WNW 11 15 6 8 1018.6 1018.6 0.6
24/03:30am 12.1 10.3 12.1 100 0.0 WNW 13 17 7 9 1018.5 1018.5 0.6
24/03:00am 12.2 10.0 12.2 100 0.0 NW 15 19 8 10 1018.6 1018.6 0.6
24/02:30am 12.0 10.2 12.0 100 0.0 NW 13 19 7 10 1018.5 1018.5 0.6
24/02:00am 12.1 9.9 12.1 100 0.0 WNW 15 19 8 10 1018.2 1018.2 0.6
24/01:30am 12.1 10.7 12.1 100 0.0 NW 11 17 6 9 1018.4 1018.4 0.6
24/01:29am 12.1 10.7 12.1 100 0.0 NW 11 17 6 9 1018.4 1018.4 0.6
24/01:15am 11.6 10.0 11.4 99 0.1 NW 11 13 6 7 1018.5 1018.5 0.6
24/01:00am 11.8 10.3 11.8 100 0.0 NW 11 15 6 8 1018.5 1018.5 0.6
24/12:58am 11.8 10.3 11.8 100 0.0 NW 11 15 6 8 1018.5 1018.5 0.6
24/12:30am 10.4 9.1 9.9 97 0.3 NW 7 9 4 5 1018.6 1018.6 0.6
24/12:18am 11.3 9.9 10.8 97 0.3 NW 9 13 5 7 1018.4 1018.4 0.6
24/12:00am 12.1 10.2 11.8 98 0.2 WNW 13 15 7 8 1018.4 1018.4 0.6
 
Date/Time
CST
Temp
°C
App
Temp
°C
Dew
Point
°C
Rel
Hum
%
Delta-T
°C
Wind Press
QNH
hPa
Press
MSL
hPa
Rain since
9am
mm
Dir  Spd
km/h
Gust
km/h
Spd
kts
Gust
kts
23/11:30pm 12.9 10.9 12.6 98 0.2 WNW 15 19 8 10 1018.6 1018.6 0.6

Other Formats:

Comma delimited format used in spreadsheet applications
http://www.bom.gov.au/fwo/IDS60801/IDS60801.94653.axf

JavaScript Object Notation format (JSON) in row-major order
http://www.bom.gov.au/fwo/IDS60801/IDS60801.94653.json